sensor_id;sensor_type;location;lat;lon;timestamp;temperature;humidity
20370;DHT22;10344;47.592;9.600;2024-02-28T00:00:45;7.70;99.90
20370;DHT22;10344;47.592;9.600;2024-02-28T00:03:13;7.70;99.90
20370;DHT22;10344;47.592;9.600;2024-02-28T00:05:39;7.70;99.90
20370;DHT22;10344;47.592;9.600;2024-02-28T00:08:04;7.70;99.90
20370;DHT22;10344;47.592;9.600;2024-02-28T00:10:32;7.70;99.90
20370;DHT22;10344;47.592;9.600;2024-02-28T00:12:59;7.80;99.90
20370;DHT22;10344;47.592;9.600;2024-02-28T00:15:27;7.70;99.90
20370;DHT22;10344;47.592;9.600;2024-02-28T00:17:55;7.70;99.90
20370;DHT22;10344;47.592;9.600;2024-02-28T00:20:21;7.70;99.90
20370;DHT22;10344;47.592;9.600;2024-02-28T00:22:49;7.70;99.90
20370;DHT22;10344;47.592;9.600;2024-02-28T00:25:15;7.70;99.90
20370;DHT22;10344;47.592;9.600;2024-02-28T00:27:43;7.70;99.90
20370;DHT22;10344;47.592;9.600;2024-02-28T00:30:09;7.70;99.90
20370;DHT22;10344;47.592;9.600;2024-02-28T00:32:34;7.70;99.90
20370;DHT22;10344;47.592;9.600;2024-02-28T00:35:00;7.70;99.90
20370;DHT22;10344;47.592;9.600;2024-02-28T00:37:25;7.70;99.90
20370;DHT22;10344;47.592;9.600;2024-02-28T00:39:53;7.90;99.90
20370;DHT22;10344;47.592;9.600;2024-02-28T00:42:22;8.10;99.90
20370;DHT22;10344;47.592;9.600;2024-02-28T00:44:47;8.00;99.90
20370;DHT22;10344;47.592;9.600;2024-02-28T00:47:13;8.00;99.90
20370;DHT22;10344;47.592;9.600;2024-02-28T00:49:40;7.90;99.90
20370;DHT22;10344;47.592;9.600;2024-02-28T00:52:05;7.80;99.90
20370;DHT22;10344;47.592;9.600;2024-02-28T00:54:31;7.80;99.90
20370;DHT22;10344;47.592;9.600;2024-02-28T00:56:57;7.80;99.90
20370;DHT22;10344;47.592;9.600;2024-02-28T00:59:22;7.70;99.90
20370;DHT22;10344;47.592;9.600;2024-02-28T01:01:50;7.70;99.90
20370;DHT22;10344;47.592;9.600;2024-02-28T01:04:17;7.70;99.90
20370;DHT22;10344;47.592;9.600;2024-02-28T01:06:42;7.60;99.90
20370;DHT22;10344;47.592;9.600;2024-02-28T01:09:08;7.60;99.90
20370;DHT22;10344;47.592;9.600;2024-02-28T01:11:34;7.60;99.90
20370;DHT22;10344;47.592;9.600;2024-02-28T01:13:59;7.70;99.90
20370;DHT22;10344;47.592;9.600;2024-02-28T01:16:25;7.80;99.90
20370;DHT22;10344;47.592;9.600;2024-02-28T01:18:51;7.70;99.90
20370;DHT22;10344;47.592;9.600;2024-02-28T01:21:17;7.70;99.90
20370;DHT22;10344;47.592;9.600;2024-02-28T01:23:42;7.70;99.90
20370;DHT22;10344;47.592;9.600;2024-02-28T01:26:08;7.70;99.90
20370;DHT22;10344;47.592;9.600;2024-02-28T01:28:34;7.60;99.90
20370;DHT22;10344;47.592;9.600;2024-02-28T01:30:59;7.60;99.90
20370;DHT22;10344;47.592;9.600;2024-02-28T01:33:25;7.60;99.90
20370;DHT22;10344;47.592;9.600;2024-02-28T01:35:54;7.60;99.90
20370;DHT22;10344;47.592;9.600;2024-02-28T01:38:22;7.60;99.90
20370;DHT22;10344;47.592;9.600;2024-02-28T01:40:47;7.60;99.90
20370;DHT22;10344;47.592;9.600;2024-02-28T01:43:13;7.60;99.90
20370;DHT22;10344;47.592;9.600;2024-02-28T01:45:41;7.60;99.90
20370;DHT22;10344;47.592;9.600;2024-02-28T01:48:09;7.60;99.90
20370;DHT22;10344;47.592;9.600;2024-02-28T01:50:36;7.60;99.90
20370;DHT22;10344;47.592;9.600;2024-02-28T01:53:03;7.60;99.90
20370;DHT22;10344;47.592;9.600;2024-02-28T01:55:31;7.60;99.90
20370;DHT22;10344;47.592;9.600;2024-02-28T01:57:57;7.60;99.90
20370;DHT22;10344;47.592;9.600;2024-02-28T02:00:24;7.60;99.90
20370;DHT22;10344;47.592;9.600;2024-02-28T02:02:50;7.60;99.90
20370;DHT22;10344;47.592;9.600;2024-02-28T02:05:16;7.60;99.90
20370;DHT22;10344;47.592;9.600;2024-02-28T02:07:47;7.60;99.90
20370;DHT22;10344;47.592;9.600;2024-02-28T02:10:13;7.60;99.90
20370;DHT22;10344;47.592;9.600;2024-02-28T02:12:39;7.60;99.90
20370;DHT22;10344;47.592;9.600;2024-02-28T02:15:05;7.60;99.90
20370;DHT22;10344;47.592;9.600;2024-02-28T02:17:31;7.60;99.90
20370;DHT22;10344;47.592;9.600;2024-02-28T02:19:56;7.60;99.90
20370;DHT22;10344;47.592;9.600;2024-02-28T02:22:23;7.60;99.90
20370;DHT22;10344;47.592;9.600;2024-02-28T02:24:50;7.60;99.90
20370;DHT22;10344;47.592;9.600;2024-02-28T02:27:18;7.60;99.90
20370;DHT22;10344;47.592;9.600;2024-02-28T02:29:44;7.60;99.90
20370;DHT22;10344;47.592;9.600;2024-02-28T02:32:09;7.60;99.90
20370;DHT22;10344;47.592;9.600;2024-02-28T02:34:35;7.60;99.90
20370;DHT22;10344;47.592;9.600;2024-02-28T02:37:00;7.50;99.90
20370;DHT22;10344;47.592;9.600;2024-02-28T02:39:29;7.50;99.90
20370;DHT22;10344;47.592;9.600;2024-02-28T02:41:57;7.60;99.90
20370;DHT22;10344;47.592;9.600;2024-02-28T02:44:23;7.60;99.90
20370;DHT22;10344;47.592;9.600;2024-02-28T02:46:52;7.60;99.90
20370;DHT22;10344;47.592;9.600;2024-02-28T02:49:20;7.60;99.90
20370;DHT22;10344;47.592;9.600;2024-02-28T02:51:45;7.60;99.90
20370;DHT22;10344;47.592;9.600;2024-02-28T02:54:11;7.60;99.90
20370;DHT22;10344;47.592;9.600;2024-02-28T02:56:37;7.60;99.90
20370;DHT22;10344;47.592;9.600;2024-02-28T02:59:02;7.60;99.90
20370;DHT22;10344;47.592;9.600;2024-02-28T03:01:28;7.60;99.90
20370;DHT22;10344;47.592;9.600;2024-02-28T03:03:56;7.60;99.90
20370;DHT22;10344;47.592;9.600;2024-02-28T03:06:24;7.60;99.90
20370;DHT22;10344;47.592;9.600;2024-02-28T03:08:50;7.60;99.90
20370;DHT22;10344;47.592;9.600;2024-02-28T03:11:15;7.60;99.90
20370;DHT22;10344;47.592;9.600;2024-02-28T03:13:41;7.60;99.90
20370;DHT22;10344;47.592;9.600;2024-02-28T03:16:07;7.60;99.90
20370;DHT22;10344;47.592;9.600;2024-02-28T03:18:32;7.60;99.90
20370;DHT22;10344;47.592;9.600;2024-02-28T03:20:58;7.60;99.90
20370;DHT22;10344;47.592;9.600;2024-02-28T03:23:23;7.60;99.90
20370;DHT22;10344;47.592;9.600;2024-02-28T03:25:49;7.60;99.90
20370;DHT22;10344;47.592;9.600;2024-02-28T03:28:15;7.60;99.90
20370;DHT22;10344;47.592;9.600;2024-02-28T03:30:42;7.70;99.90
20370;DHT22;10344;47.592;9.600;2024-02-28T03:33:08;7.60;99.90
20370;DHT22;10344;47.592;9.600;2024-02-28T03:35:34;7.60;99.90
20370;DHT22;10344;47.592;9.600;2024-02-28T03:38:00;7.60;99.90
20370;DHT22;10344;47.592;9.600;2024-02-28T03:40:26;7.70;99.90
20370;DHT22;10344;47.592;9.600;2024-02-28T03:42:51;7.70;99.90
20370;DHT22;10344;47.592;9.600;2024-02-28T03:45:17;7.80;99.90
20370;DHT22;10344;47.592;9.600;2024-02-28T03:47:42;7.80;99.90
20370;DHT22;10344;47.592;9.600;2024-02-28T03:50:08;7.90;99.90
20370;DHT22;10344;47.592;9.600;2024-02-28T03:52:36;7.90;99.90
20370;DHT22;10344;47.592;9.600;2024-02-28T03:55:02;7.90;99.90
20370;DHT22;10344;47.592;9.600;2024-02-28T03:57:28;7.90;99.90
20370;DHT22;10344;47.592;9.600;2024-02-28T03:59:54;8.00;99.90
20370;DHT22;10344;47.592;9.600;2024-02-28T04:02:19;8.00;99.90
20370;DHT22;10344;47.592;9.600;2024-02-28T04:04:45;8.00;99.90
20370;DHT22;10344;47.592;9.600;2024-02-28T04:07:11;8.00;99.90
20370;DHT22;10344;47.592;9.600;2024-02-28T04:09:36;8.00;99.90
20370;DHT22;10344;47.592;9.600;2024-02-28T04:12:02;8.00;99.90
20370;DHT22;10344;47.592;9.600;2024-02-28T04:14:30;7.90;99.90
20370;DHT22;10344;47.592;9.600;2024-02-28T04:16:56;7.90;99.90
20370;DHT22;10344;47.592;9.600;2024-02-28T04:19:21;7.90;99.90
20370;DHT22;10344;47.592;9.600;2024-02-28T04:21:47;7.80;99.90
20370;DHT22;10344;47.592;9.600;2024-02-28T04:24:13;7.90;99.90
20370;DHT22;10344;47.592;9.600;2024-02-28T04:26:41;7.90;99.90
20370;DHT22;10344;47.592;9.600;2024-02-28T04:29:06;7.90;99.90
20370;DHT22;10344;47.592;9.600;2024-02-28T04:31:39;7.90;99.90
20370;DHT22;10344;47.592;9.600;2024-02-28T04:34:04;7.90;99.90
20370;DHT22;10344;47.592;9.600;2024-02-28T04:36:30;7.90;99.90
20370;DHT22;10344;47.592;9.600;2024-02-28T04:38:55;7.80;99.90
20370;DHT22;10344;47.592;9.600;2024-02-28T04:41:21;7.80;99.90
20370;DHT22;10344;47.592;9.600;2024-02-28T04:43:47;7.80;99.90
20370;DHT22;10344;47.592;9.600;2024-02-28T04:46:12;7.80;99.90
20370;DHT22;10344;47.592;9.600;2024-02-28T04:48:40;7.80;99.90
20370;DHT22;10344;47.592;9.600;2024-02-28T04:51:08;7.80;99.90
20370;DHT22;10344;47.592;9.600;2024-02-28T04:53:33;7.80;99.90
20370;DHT22;10344;47.592;9.600;2024-02-28T04:56:00;7.80;99.90
20370;DHT22;10344;47.592;9.600;2024-02-28T04:58:27;7.80;99.90
20370;DHT22;10344;47.592;9.600;2024-02-28T05:00:53;7.80;99.90
20370;DHT22;10344;47.592;9.600;2024-02-28T05:03:19;7.80;99.90
20370;DHT22;10344;47.592;9.600;2024-02-28T05:05:44;7.80;99.90
20370;DHT22;10344;47.592;9.600;2024-02-28T05:08:10;7.80;99.90
20370;DHT22;10344;47.592;9.600;2024-02-28T05:10:36;7.80;99.90
20370;DHT22;10344;47.592;9.600;2024-02-28T05:13:01;7.70;99.90
20370;DHT22;10344;47.592;9.600;2024-02-28T05:15:29;7.80;99.90
20370;DHT22;10344;47.592;9.600;2024-02-28T05:17:54;7.80;99.90
20370;DHT22;10344;47.592;9.600;2024-02-28T05:20:20;7.80;99.90
20370;DHT22;10344;47.592;9.600;2024-02-28T05:22:46;7.80;99.90
20370;DHT22;10344;47.592;9.600;2024-02-28T05:25:11;7.80;99.90
20370;DHT22;10344;47.592;9.600;2024-02-28T05:27:37;7.80;99.90
20370;DHT22;10344;47.592;9.600;2024-02-28T05:30:03;7.80;99.90
20370;DHT22;10344;47.592;9.600;2024-02-28T05:32:32;7.80;99.90
20370;DHT22;10344;47.592;9.600;2024-02-28T05:34:58;7.80;99.90
20370;DHT22;10344;47.592;9.600;2024-02-28T05:37:25;7.80;99.90
20370;DHT22;10344;47.592;9.600;2024-02-28T05:39:51;7.80;99.90
20370;DHT22;10344;47.592;9.600;2024-02-28T05:42:19;7.80;99.90
20370;DHT22;10344;47.592;9.600;2024-02-28T05:44:49;7.80;99.90
20370;DHT22;10344;47.592;9.600;2024-02-28T05:47:16;7.70;99.90
20370;DHT22;10344;47.592;9.600;2024-02-28T05:49:45;7.80;99.90
20370;DHT22;10344;47.592;9.600;2024-02-28T05:52:10;7.90;99.90
20370;DHT22;10344;47.592;9.600;2024-02-28T05:54:39;8.00;99.90
20370;DHT22;10344;47.592;9.600;2024-02-28T05:57:05;7.90;99.90
20370;DHT22;10344;47.592;9.600;2024-02-28T05:59:31;7.90;99.90
20370;DHT22;10344;47.592;9.600;2024-02-28T06:01:56;7.90;99.90
20370;DHT22;10344;47.592;9.600;2024-02-28T06:04:22;7.90;99.90
20370;DHT22;10344;47.592;9.600;2024-02-28T06:06:47;7.80;99.90
20370;DHT22;10344;47.592;9.600;2024-02-28T06:09:17;7.80;99.90
20370;DHT22;10344;47.592;9.600;2024-02-28T06:11:42;7.80;99.90
20370;DHT22;10344;47.592;9.600;2024-02-28T06:14:08;7.90;99.90
20370;DHT22;10344;47.592;9.600;2024-02-28T06:16:34;7.90;99.90
20370;DHT22;10344;47.592;9.600;2024-02-28T06:19:00;7.90;99.90
20370;DHT22;10344;47.592;9.600;2024-02-28T06:21:27;7.90;99.90
20370;DHT22;10344;47.592;9.600;2024-02-28T06:23:54;7.90;99.90
20370;DHT22;10344;47.592;9.600;2024-02-28T06:26:20;7.90;99.90
20370;DHT22;10344;47.592;9.600;2024-02-28T06:28:46;7.90;99.90
20370;DHT22;10344;47.592;9.600;2024-02-28T06:31:15;8.00;99.90
20370;DHT22;10344;47.592;9.600;2024-02-28T06:33:45;8.10;99.90
20370;DHT22;10344;47.592;9.600;2024-02-28T06:36:11;8.00;99.90
20370;DHT22;10344;47.592;9.600;2024-02-28T06:38:40;8.00;99.90
20370;DHT22;10344;47.592;9.600;2024-02-28T06:41:05;8.00;99.90
20370;DHT22;10344;47.592;9.600;2024-02-28T06:43:34;8.10;99.90
20370;DHT22;10344;47.592;9.600;2024-02-28T06:46:02;8.10;99.90
20370;DHT22;10344;47.592;9.600;2024-02-28T06:48:28;8.00;99.90
20370;DHT22;10344;47.592;9.600;2024-02-28T06:50:54;8.00;99.90
20370;DHT22;10344;47.592;9.600;2024-02-28T06:53:20;8.10;99.90
20370;DHT22;10344;47.592;9.600;2024-02-28T06:55:46;8.00;99.90
20370;DHT22;10344;47.592;9.600;2024-02-28T06:58:16;8.00;99.90
20370;DHT22;10344;47.592;9.600;2024-02-28T07:00:44;8.00;99.90
20370;DHT22;10344;47.592;9.600;2024-02-28T07:03:10;8.00;99.90
20370;DHT22;10344;47.592;9.600;2024-02-28T07:05:36;8.10;99.90
20370;DHT22;10344;47.592;9.600;2024-02-28T07:08:04;8.00;99.90
20370;DHT22;10344;47.592;9.600;2024-02-28T07:10:29;8.10;99.90
20370;DHT22;10344;47.592;9.600;2024-02-28T07:12:57;8.20;99.90
20370;DHT22;10344;47.592;9.600;2024-02-28T07:15:25;8.10;99.90
20370;DHT22;10344;47.592;9.600;2024-02-28T07:17:51;8.10;99.90
20370;DHT22;10344;47.592;9.600;2024-02-28T07:20:19;8.20;99.90
20370;DHT22;10344;47.592;9.600;2024-02-28T07:22:47;8.20;99.90
20370;DHT22;10344;47.592;9.600;2024-02-28T07:25:15;8.20;99.90
20370;DHT22;10344;47.592;9.600;2024-02-28T07:27:41;8.20;99.90
20370;DHT22;10344;47.592;9.600;2024-02-28T07:30:07;8.10;99.90
20370;DHT22;10344;47.592;9.600;2024-02-28T07:32:32;8.10;99.90
20370;DHT22;10344;47.592;9.600;2024-02-28T07:35:01;8.20;99.90
20370;DHT22;10344;47.592;9.600;2024-02-28T07:37:31;8.10;99.90
20370;DHT22;10344;47.592;9.600;2024-02-28T07:39:57;8.10;99.90
20370;DHT22;10344;47.592;9.600;2024-02-28T07:42:22;8.10;99.90
20370;DHT22;10344;47.592;9.600;2024-02-28T07:44:50;8.20;99.90
20370;DHT22;10344;47.592;9.600;2024-02-28T07:47:23;8.20;99.90
20370;DHT22;10344;47.592;9.600;2024-02-28T07:49:48;8.20;99.90
20370;DHT22;10344;47.592;9.600;2024-02-28T07:52:16;8.40;99.90
20370;DHT22;10344;47.592;9.600;2024-02-28T07:54:42;8.70;99.90
20370;DHT22;10344;47.592;9.600;2024-02-28T07:57:11;8.80;99.90
20370;DHT22;10344;47.592;9.600;2024-02-28T07:59:41;9.10;99.90
20370;DHT22;10344;47.592;9.600;2024-02-28T08:02:07;9.30;99.90
20370;DHT22;10344;47.592;9.600;2024-02-28T08:04:33;9.40;99.90
20370;DHT22;10344;47.592;9.600;2024-02-28T08:06:59;9.60;99.90
20370;DHT22;10344;47.592;9.600;2024-02-28T08:09:25;9.60;99.90
20370;DHT22;10344;47.592;9.600;2024-02-28T08:11:51;9.70;99.90
20370;DHT22;10344;47.592;9.600;2024-02-28T08:14:16;9.80;99.90
20370;DHT22;10344;47.592;9.600;2024-02-28T08:16:43;9.80;99.90
20370;DHT22;10344;47.592;9.600;2024-02-28T08:19:13;9.80;99.90
20370;DHT22;10344;47.592;9.600;2024-02-28T08:21:38;9.80;99.90
20370;DHT22;10344;47.592;9.600;2024-02-28T08:24:04;10.00;99.90
20370;DHT22;10344;47.592;9.600;2024-02-28T08:26:33;10.30;99.90
20370;DHT22;10344;47.592;9.600;2024-02-28T08:28:58;10.30;99.90
20370;DHT22;10344;47.592;9.600;2024-02-28T08:31:24;10.30;99.90
20370;DHT22;10344;47.592;9.600;2024-02-28T08:33:50;10.40;99.90
20370;DHT22;10344;47.592;9.600;2024-02-28T08:36:17;10.50;99.90
20370;DHT22;10344;47.592;9.600;2024-02-28T08:38:43;10.60;99.90
20370;DHT22;10344;47.592;9.600;2024-02-28T08:41:09;10.50;99.90
20370;DHT22;10344;47.592;9.600;2024-02-28T08:43:40;10.50;99.90
20370;DHT22;10344;47.592;9.600;2024-02-28T08:46:08;10.60;99.90
20370;DHT22;10344;47.592;9.600;2024-02-28T08:48:34;10.70;99.90
20370;DHT22;10344;47.592;9.600;2024-02-28T08:51:00;10.60;99.90
20370;DHT22;10344;47.592;9.600;2024-02-28T08:53:26;10.50;99.90
20370;DHT22;10344;47.592;9.600;2024-02-28T08:55:51;10.30;99.90
20370;DHT22;10344;47.592;9.600;2024-02-28T08:58:17;10.10;99.90
20370;DHT22;10344;47.592;9.600;2024-02-28T09:00:43;9.90;99.90
20370;DHT22;10344;47.592;9.600;2024-02-28T09:03:09;9.70;99.90
20370;DHT22;10344;47.592;9.600;2024-02-28T09:05:34;9.50;99.90
20370;DHT22;10344;47.592;9.600;2024-02-28T09:08:01;9.40;99.90
20370;DHT22;10344;47.592;9.600;2024-02-28T09:10:27;9.30;99.90
20370;DHT22;10344;47.592;9.600;2024-02-28T09:12:54;9.20;99.90
20370;DHT22;10344;47.592;9.600;2024-02-28T09:15:20;9.20;99.90
20370;DHT22;10344;47.592;9.600;2024-02-28T09:17:48;9.20;99.90
20370;DHT22;10344;47.592;9.600;2024-02-28T09:20:13;9.30;99.90
20370;DHT22;10344;47.592;9.600;2024-02-28T09:22:42;9.30;99.90
20370;DHT22;10344;47.592;9.600;2024-02-28T09:25:08;9.30;99.90
20370;DHT22;10344;47.592;9.600;2024-02-28T09:27:37;9.30;99.90
20370;DHT22;10344;47.592;9.600;2024-02-28T09:30:03;9.30;99.90
20370;DHT22;10344;47.592;9.600;2024-02-28T09:32:29;9.30;99.90
20370;DHT22;10344;47.592;9.600;2024-02-28T09:34:54;9.30;99.90
20370;DHT22;10344;47.592;9.600;2024-02-28T09:37:20;9.30;99.90
20370;DHT22;10344;47.592;9.600;2024-02-28T09:39:48;9.30;99.90
20370;DHT22;10344;47.592;9.600;2024-02-28T09:42:14;9.30;99.90
20370;DHT22;10344;47.592;9.600;2024-02-28T09:44:43;9.30;99.90
20370;DHT22;10344;47.592;9.600;2024-02-28T09:47:08;9.30;99.90
20370;DHT22;10344;47.592;9.600;2024-02-28T09:49:35;9.20;99.90
20370;DHT22;10344;47.592;9.600;2024-02-28T09:52:03;9.20;99.90
20370;DHT22;10344;47.592;9.600;2024-02-28T09:54:31;9.30;99.90
20370;DHT22;10344;47.592;9.600;2024-02-28T09:57:02;9.40;99.90
20370;DHT22;10344;47.592;9.600;2024-02-28T09:59:28;9.50;99.90
20370;DHT22;10344;47.592;9.600;2024-02-28T10:01:56;9.60;99.90
20370;DHT22;10344;47.592;9.600;2024-02-28T10:04:25;9.60;99.90
20370;DHT22;10344;47.592;9.600;2024-02-28T10:06:51;9.70;99.90
20370;DHT22;10344;47.592;9.600;2024-02-28T10:09:17;9.70;99.90
20370;DHT22;10344;47.592;9.600;2024-02-28T10:11:42;9.70;99.90
20370;DHT22;10344;47.592;9.600;2024-02-28T10:14:18;9.80;99.90
20370;DHT22;10344;47.592;9.600;2024-02-28T10:16:46;9.90;99.90
20370;DHT22;10344;47.592;9.600;2024-02-28T10:19:15;10.00;99.90
20370;DHT22;10344;47.592;9.600;2024-02-28T10:21:41;10.00;99.90
20370;DHT22;10344;47.592;9.600;2024-02-28T10:24:07;10.00;99.90
20370;DHT22;10344;47.592;9.600;2024-02-28T10:26:32;10.00;99.90
20370;DHT22;10344;47.592;9.600;2024-02-28T10:29:03;9.90;99.90
20370;DHT22;10344;47.592;9.600;2024-02-28T10:31:34;10.00;99.90
20370;DHT22;10344;47.592;9.600;2024-02-28T10:34:02;10.00;99.90
20370;DHT22;10344;47.592;9.600;2024-02-28T10:36:30;10.00;99.90
20370;DHT22;10344;47.592;9.600;2024-02-28T10:38:57;10.00;99.90
20370;DHT22;10344;47.592;9.600;2024-02-28T10:41:26;10.10;99.90
20370;DHT22;10344;47.592;9.600;2024-02-28T10:43:51;10.20;99.90
20370;DHT22;10344;47.592;9.600;2024-02-28T10:46:21;10.20;99.90
20370;DHT22;10344;47.592;9.600;2024-02-28T10:48:49;10.30;99.90
20370;DHT22;10344;47.592;9.600;2024-02-28T10:51:25;10.30;99.90
20370;DHT22;10344;47.592;9.600;2024-02-28T10:54:09;10.40;99.90
20370;DHT22;10344;47.592;9.600;2024-02-28T10:56:38;10.40;99.90
20370;DHT22;10344;47.592;9.600;2024-02-28T10:59:07;10.40;99.90
20370;DHT22;10344;47.592;9.600;2024-02-28T11:01:37;10.60;99.90
20370;DHT22;10344;47.592;9.600;2024-02-28T11:04:04;10.80;99.90
20370;DHT22;10344;47.592;9.600;2024-02-28T11:06:31;10.90;99.90
20370;DHT22;10344;47.592;9.600;2024-02-28T11:09:00;11.10;99.90
20370;DHT22;10344;47.592;9.600;2024-02-28T11:11:30;11.20;99.90
20370;DHT22;10344;47.592;9.600;2024-02-28T11:13:59;11.30;99.90
20370;DHT22;10344;47.592;9.600;2024-02-28T11:16:31;11.30;99.90
20370;DHT22;10344;47.592;9.600;2024-02-28T11:18:57;11.30;99.90
20370;DHT22;10344;47.592;9.600;2024-02-28T11:21:27;11.20;99.90
20370;DHT22;10344;47.592;9.600;2024-02-28T11:23:59;11.10;99.90
20370;DHT22;10344;47.592;9.600;2024-02-28T11:26:25;10.90;99.90
20370;DHT22;10344;47.592;9.600;2024-02-28T11:28:56;10.90;99.90
20370;DHT22;10344;47.592;9.600;2024-02-28T11:31:24;10.80;99.90
20370;DHT22;10344;47.592;9.600;2024-02-28T11:33:49;10.70;99.90
20370;DHT22;10344;47.592;9.600;2024-02-28T11:36:18;10.70;99.90
20370;DHT22;10344;47.592;9.600;2024-02-28T11:38:44;10.60;99.90
20370;DHT22;10344;47.592;9.600;2024-02-28T11:41:12;10.50;99.90
20370;DHT22;10344;47.592;9.600;2024-02-28T11:43:38;10.40;99.90
20370;DHT22;10344;47.592;9.600;2024-02-28T11:46:10;10.30;99.90
20370;DHT22;10344;47.592;9.600;2024-02-28T11:48:36;10.30;99.90
20370;DHT22;10344;47.592;9.600;2024-02-28T11:51:02;10.30;99.90
20370;DHT22;10344;47.592;9.600;2024-02-28T11:53:28;10.40;99.90
20370;DHT22;10344;47.592;9.600;2024-02-28T11:55:54;10.40;99.90
20370;DHT22;10344;47.592;9.600;2024-02-28T11:58:21;10.40;99.90
20370;DHT22;10344;47.592;9.600;2024-02-28T12:00:50;10.30;99.90
20370;DHT22;10344;47.592;9.600;2024-02-28T12:03:26;10.20;99.90
20370;DHT22;10344;47.592;9.600;2024-02-28T12:05:52;10.30;99.90
20370;DHT22;10344;47.592;9.600;2024-02-28T12:08:23;10.30;99.90
20370;DHT22;10344;47.592;9.600;2024-02-28T12:10:48;10.30;99.90
20370;DHT22;10344;47.592;9.600;2024-02-28T12:13:18;10.30;99.90
20370;DHT22;10344;47.592;9.600;2024-02-28T12:15:44;10.40;99.90
20370;DHT22;10344;47.592;9.600;2024-02-28T12:18:11;10.40;99.90
20370;DHT22;10344;47.592;9.600;2024-02-28T12:20:38;10.40;99.90
20370;DHT22;10344;47.592;9.600;2024-02-28T12:23:06;10.60;99.90
20370;DHT22;10344;47.592;9.600;2024-02-28T12:25:33;10.60;99.90
20370;DHT22;10344;47.592;9.600;2024-02-28T12:28:01;10.60;99.90
20370;DHT22;10344;47.592;9.600;2024-02-28T12:30:28;10.60;99.90
20370;DHT22;10344;47.592;9.600;2024-02-28T12:32:56;10.50;99.90
20370;DHT22;10344;47.592;9.600;2024-02-28T12:35:21;10.60;99.90
20370;DHT22;10344;47.592;9.600;2024-02-28T12:37:47;10.70;99.90
20370;DHT22;10344;47.592;9.600;2024-02-28T12:40:14;10.80;99.90
20370;DHT22;10344;47.592;9.600;2024-02-28T12:42:41;10.80;99.90
20370;DHT22;10344;47.592;9.600;2024-02-28T12:45:07;10.80;99.90
20370;DHT22;10344;47.592;9.600;2024-02-28T12:47:32;10.80;99.90
20370;DHT22;10344;47.592;9.600;2024-02-28T12:49:58;10.90;99.90
20370;DHT22;10344;47.592;9.600;2024-02-28T12:52:25;11.10;99.90
20370;DHT22;10344;47.592;9.600;2024-02-28T12:54:53;11.10;99.90
20370;DHT22;10344;47.592;9.600;2024-02-28T12:57:19;11.20;99.90
20370;DHT22;10344;47.592;9.600;2024-02-28T12:59:44;11.30;99.90
20370;DHT22;10344;47.592;9.600;2024-02-28T13:02:10;11.30;99.90
20370;DHT22;10344;47.592;9.600;2024-02-28T13:04:36;11.30;99.90
20370;DHT22;10344;47.592;9.600;2024-02-28T13:07:01;11.20;99.90
20370;DHT22;10344;47.592;9.600;2024-02-28T13:09:30;11.20;99.90
20370;DHT22;10344;47.592;9.600;2024-02-28T13:11:55;11.10;99.90
20370;DHT22;10344;47.592;9.600;2024-02-28T13:14:21;11.10;99.90
20370;DHT22;10344;47.592;9.600;2024-02-28T13:16:47;11.00;99.90
20370;DHT22;10344;47.592;9.600;2024-02-28T13:19:14;10.80;99.90
20370;DHT22;10344;47.592;9.600;2024-02-28T13:21:42;10.80;99.90
20370;DHT22;10344;47.592;9.600;2024-02-28T13:24:10;10.70;99.90
20370;DHT22;10344;47.592;9.600;2024-02-28T13:26:36;10.70;99.90
20370;DHT22;10344;47.592;9.600;2024-02-28T13:29:01;10.70;99.90
20370;DHT22;10344;47.592;9.600;2024-02-28T13:31:27;10.70;99.90
20370;DHT22;10344;47.592;9.600;2024-02-28T13:33:53;10.70;99.90
20370;DHT22;10344;47.592;9.600;2024-02-28T13:36:21;10.70;99.90
20370;DHT22;10344;47.592;9.600;2024-02-28T13:38:47;10.60;99.90
20370;DHT22;10344;47.592;9.600;2024-02-28T13:41:13;10.60;99.90
20370;DHT22;10344;47.592;9.600;2024-02-28T13:43:38;10.60;99.90
20370;DHT22;10344;47.592;9.600;2024-02-28T13:46:06;10.60;99.90
20370;DHT22;10344;47.592;9.600;2024-02-28T13:48:32;10.60;99.90
20370;DHT22;10344;47.592;9.600;2024-02-28T13:50:59;10.60;99.90
20370;DHT22;10344;47.592;9.600;2024-02-28T13:53:25;10.60;99.90
20370;DHT22;10344;47.592;9.600;2024-02-28T13:55:51;10.60;99.90
20370;DHT22;10344;47.592;9.600;2024-02-28T13:58:17;10.40;99.90
20370;DHT22;10344;47.592;9.600;2024-02-28T14:00:44;10.40;99.90
20370;DHT22;10344;47.592;9.600;2024-02-28T14:03:11;10.40;99.90
20370;DHT22;10344;47.592;9.600;2024-02-28T14:05:37;10.30;99.90
20370;DHT22;10344;47.592;9.600;2024-02-28T14:08:05;10.30;99.90
20370;DHT22;10344;47.592;9.600;2024-02-28T14:10:34;10.20;99.90
20370;DHT22;10344;47.592;9.600;2024-02-28T14:13:00;10.20;99.90
20370;DHT22;10344;47.592;9.600;2024-02-28T14:15:26;10.10;99.90
20370;DHT22;10344;47.592;9.600;2024-02-28T14:17:52;10.10;99.90
20370;DHT22;10344;47.592;9.600;2024-02-28T14:20:20;10.00;99.90
20370;DHT22;10344;47.592;9.600;2024-02-28T14:22:45;10.00;99.90
20370;DHT22;10344;47.592;9.600;2024-02-28T14:25:15;9.90;99.90
20370;DHT22;10344;47.592;9.600;2024-02-28T14:27:45;9.90;99.90
20370;DHT22;10344;47.592;9.600;2024-02-28T14:30:12;9.90;99.90
20370;DHT22;10344;47.592;9.600;2024-02-28T14:32:39;9.90;99.90
20370;DHT22;10344;47.592;9.600;2024-02-28T14:35:06;9.90;99.90
20370;DHT22;10344;47.592;9.600;2024-02-28T14:37:33;10.00;99.90
20370;DHT22;10344;47.592;9.600;2024-02-28T14:40:00;10.00;99.90
20370;DHT22;10344;47.592;9.600;2024-02-28T14:42:39;10.00;99.90
20370;DHT22;10344;47.592;9.600;2024-02-28T14:45:09;9.90;99.90
20370;DHT22;10344;47.592;9.600;2024-02-28T14:47:36;9.80;99.90
20370;DHT22;10344;47.592;9.600;2024-02-28T14:50:03;9.80;99.90
20370;DHT22;10344;47.592;9.600;2024-02-28T14:52:29;9.80;99.90
20370;DHT22;10344;47.592;9.600;2024-02-28T14:54:55;9.70;99.90
20370;DHT22;10344;47.592;9.600;2024-02-28T14:57:20;9.70;99.90
20370;DHT22;10344;47.592;9.600;2024-02-28T14:59:48;9.70;99.90
20370;DHT22;10344;47.592;9.600;2024-02-28T15:02:14;9.70;99.90
20370;DHT22;10344;47.592;9.600;2024-02-28T15:04:40;9.70;99.90
20370;DHT22;10344;47.592;9.600;2024-02-28T15:07:06;9.70;99.90
20370;DHT22;10344;47.592;9.600;2024-02-28T15:09:32;9.60;99.90
20370;DHT22;10344;47.592;9.600;2024-02-28T15:11:59;9.60;99.90
20370;DHT22;10344;47.592;9.600;2024-02-28T15:14:25;9.70;99.90
20370;DHT22;10344;47.592;9.600;2024-02-28T15:16:51;9.80;99.90
20370;DHT22;10344;47.592;9.600;2024-02-28T15:19:19;9.70;99.90
20370;DHT22;10344;47.592;9.600;2024-02-28T15:21:45;9.60;99.90
20370;DHT22;10344;47.592;9.600;2024-02-28T15:24:10;9.60;99.90
20370;DHT22;10344;47.592;9.600;2024-02-28T15:26:39;9.60;99.90
20370;DHT22;10344;47.592;9.600;2024-02-28T15:29:04;9.50;99.90
20370;DHT22;10344;47.592;9.600;2024-02-28T15:31:30;9.40;99.90
20370;DHT22;10344;47.592;9.600;2024-02-28T15:33:55;9.40;99.90
20370;DHT22;10344;47.592;9.600;2024-02-28T15:36:21;9.50;99.90
20370;DHT22;10344;47.592;9.600;2024-02-28T15:38:49;9.40;99.90